Terminal Aerodrome Forecast
Issued by NWS

Home | Current Version | Previous Version | Text Only | Print | Product List | Glossary On
Versions: 1 2 3 4 5 6 7 8 9 10 11 12 13 14 15 16 17 18 19 20 21 22
000
FTUS41 KBGM 032329
TAFELM
TAF
KELM 032329Z 0400/0424 VRB03KT P6SM SCT045 SCT250
     FM040500 VRB02KT 3SM BR SCT250
      TEMPO 0405/0409 1SM BR OVC002
     FM040900 VRB02KT 1/2SM FG VV002
     FM041230 VRB03KT 1SM BR OVC004
     FM041330 07003KT P6SM SCT045 SCT250=

USA.gov is the U.S. government's official web portal to all federal, state and local government web resources and services.